createdAt,value
2022-09-15T00:03:54.564Z,23.60
2022-09-15T00:08:58.188Z,23.70
2022-09-15T00:14:05.197Z,23.70
2022-09-15T00:19:08.242Z,23.70
2022-09-15T00:24:11.481Z,23.60
2022-09-15T00:29:15.800Z,23.60
2022-09-15T00:34:18.764Z,23.60
2022-09-15T00:39:21.712Z,23.60
2022-09-15T00:44:54.107Z,23.60
2022-09-15T00:50:01.735Z,23.60
2022-09-15T00:55:09.283Z,23.70
2022-09-15T01:00:18.262Z,23.60
2022-09-15T01:05:26.692Z,23.70
2022-09-15T01:10:32.371Z,23.60
2022-09-15T01:15:46.368Z,23.60
2022-09-15T01:21:21.191Z,23.60
2022-09-15T01:26:58.405Z,23.60
2022-09-15T01:32:26.427Z,23.60
2022-09-15T01:37:33.870Z,23.60
2022-09-15T01:42:38.306Z,23.60
2022-09-15T01:47:43.262Z,23.60
2022-09-15T01:52:50.673Z,23.60
2022-09-15T01:57:53.677Z,23.60
2022-09-15T02:03:04.194Z,23.60
2022-09-15T02:08:15.596Z,23.60
2022-09-15T02:13:23.744Z,23.60
2022-09-15T02:18:37.805Z,23.60
2022-09-15T02:23:47.520Z,23.60
2022-09-15T02:28:51.929Z,23.60
2022-09-15T02:34:01.080Z,23.60
2022-09-15T02:39:08.238Z,23.60
2022-09-15T02:44:11.995Z,23.60
2022-09-15T02:49:16.967Z,23.60
2022-09-15T02:54:20.023Z,23.60
2022-09-15T02:59:22.971Z,23.60
2022-09-15T03:04:27.324Z,23.60
2022-09-15T03:09:30.423Z,23.60
2022-09-15T03:14:33.373Z,23.60
2022-09-15T03:19:37.807Z,23.60
2022-09-15T03:24:42.403Z,23.60
2022-09-15T03:29:45.457Z,23.60
2022-09-15T03:34:49.779Z,23.60
2022-09-15T03:39:52.792Z,23.60
2022-09-15T03:44:55.767Z,23.50
2022-09-15T03:50:00.074Z,23.60
2022-09-15T03:55:03.035Z,23.60
2022-09-15T04:00:07.885Z,23.60
2022-09-15T04:05:13.306Z,23.50
2022-09-15T04:10:16.594Z,23.60
2022-09-15T04:15:19.987Z,23.50
2022-09-15T04:20:24.273Z,23.50
2022-09-15T04:25:27.829Z,23.50
2022-09-15T04:30:30.928Z,23.50
2022-09-15T04:35:35.224Z,23.50
2022-09-15T04:40:38.405Z,23.50
2022-09-15T04:45:41.370Z,23.50
2022-09-15T04:50:45.707Z,23.50
2022-09-15T04:55:48.636Z,23.50
2022-09-15T05:00:51.628Z,23.40
2022-09-15T05:05:55.975Z,23.40
2022-09-15T05:11:00.899Z,23.50
2022-09-15T05:16:08.582Z,23.40
2022-09-15T05:21:14.435Z,23.40
2022-09-15T05:26:19.709Z,23.50
2022-09-15T05:31:24.360Z,23.50
2022-09-15T05:36:28.840Z,23.50
2022-09-15T05:41:31.800Z,23.50
2022-09-15T05:46:34.820Z,23.50
2022-09-15T05:51:39.178Z,23.50
2022-09-15T05:56:42.186Z,23.50
2022-09-15T06:01:45.475Z,23.50
2022-09-15T06:06:49.806Z,23.60
2022-09-15T06:11:53.430Z,23.60
2022-09-15T06:16:56.382Z,23.60
2022-09-15T06:22:00.695Z,23.60
2022-09-15T06:27:03.742Z,23.60
2022-09-15T06:32:06.997Z,23.50
2022-09-15T06:37:11.878Z,23.40
2022-09-15T06:42:15.051Z,23.40
2022-09-15T06:47:18.039Z,23.40
2022-09-15T06:52:22.363Z,23.40
2022-09-15T06:57:25.349Z,23.30
2022-09-15T07:02:28.364Z,23.40
2022-09-15T07:07:32.750Z,23.40
2022-09-15T07:12:35.725Z,23.40
2022-09-15T07:17:38.663Z,23.40
2022-09-15T07:22:44.156Z,23.40
2022-09-15T07:27:47.115Z,23.40
2022-09-15T07:32:50.236Z,23.40
2022-09-15T07:37:54.567Z,23.50
2022-09-15T07:42:57.501Z,23.50
2022-09-15T07:48:00.435Z,23.50
2022-09-15T07:53:04.841Z,23.50
2022-09-15T07:58:07.779Z,23.50
2022-09-15T08:03:12.423Z,23.50
2022-09-15T08:08:16.736Z,23.50
2022-09-15T08:13:20.076Z,23.40
2022-09-15T08:18:23.045Z,23.40
2022-09-15T08:23:27.372Z,23.40
2022-09-15T08:28:30.308Z,23.40
2022-09-15T08:33:33.591Z,23.40
2022-09-15T08:38:39.796Z,23.30
2022-09-15T08:43:47.507Z,23.30
2022-09-15T08:49:00.758Z,23.40
2022-09-15T08:54:13.797Z,23.40
2022-09-15T08:59:18.300Z,23.40
2022-09-15T09:04:36.635Z,23.40
2022-09-15T09:09:47.864Z,23.40
2022-09-15T09:15:06.111Z,23.40
2022-09-15T09:20:27.509Z,23.40
2022-09-15T09:25:31.818Z,23.40
2022-09-15T09:30:37.719Z,23.40
2022-09-15T09:35:45.760Z,23.40
2022-09-15T09:40:51.476Z,23.40
2022-09-15T09:45:54.617Z,23.40
2022-09-15T09:50:57.922Z,23.40
2022-09-15T09:56:23.087Z,23.40
2022-09-15T10:01:27.244Z,23.40
2022-09-15T10:06:31.998Z,23.40
2022-09-15T10:11:44.258Z,23.50
2022-09-15T10:17:00.673Z,23.50
2022-09-15T10:22:05.539Z,23.50
2022-09-15T10:27:19.718Z,23.50
2022-09-15T10:32:28.359Z,23.50
2022-09-15T10:37:36.075Z,23.50
2022-09-15T10:42:51.247Z,23.50
2022-09-15T10:48:07.239Z,23.50
2022-09-15T10:53:18.296Z,23.50
2022-09-15T10:59:00.825Z,23.60
2022-09-15T11:04:31.658Z,23.60
2022-09-15T11:09:37.116Z,23.60
2022-09-15T11:14:52.731Z,23.60
2022-09-15T11:20:26.591Z,23.60
2022-09-15T11:25:32.429Z,23.60
2022-09-15T11:30:44.436Z,23.60
2022-09-15T11:35:55.267Z,23.70
2022-09-15T11:41:08.831Z,23.70
2022-09-15T11:46:17.776Z,23.70
2022-09-15T11:51:24.608Z,23.70
2022-09-15T11:56:31.770Z,23.70
2022-09-15T12:01:44.708Z,23.80
2022-09-15T12:06:52.383Z,23.80
2022-09-15T12:11:58.594Z,23.80
2022-09-15T12:17:05.422Z,23.70
2022-09-15T12:22:16.195Z,23.80
2022-09-15T12:27:21.214Z,23.80
2022-09-15T12:32:28.734Z,23.80
2022-09-15T12:37:37.422Z,23.70
2022-09-15T12:42:47.442Z,23.70
2022-09-15T12:47:55.714Z,23.70
2022-09-15T12:53:01.183Z,23.70
2022-09-15T12:58:09.450Z,23.80
2022-09-15T13:03:48.856Z,23.70
2022-09-15T13:09:19.906Z,23.70
2022-09-15T13:14:29.006Z,23.70
2022-09-15T13:19:41.551Z,23.80
2022-09-15T13:24:49.695Z,23.80
2022-09-15T13:29:58.011Z,23.70
2022-09-15T13:35:34.744Z,23.80
2022-09-15T13:40:55.142Z,23.70
2022-09-15T13:46:13.064Z,23.70
2022-09-15T13:51:23.190Z,23.70
2022-09-15T13:56:31.249Z,23.70
2022-09-15T14:01:38.794Z,23.70
2022-09-15T14:06:45.135Z,23.70
2022-09-15T14:11:53.679Z,23.70
2022-09-15T14:16:57.923Z,23.70
2022-09-15T14:22:01.921Z,23.60
2022-09-15T14:27:11.259Z,23.70
2022-09-15T14:32:16.990Z,23.60
2022-09-15T14:37:23.935Z,23.60
2022-09-15T14:42:30.743Z,23.70
2022-09-15T14:47:33.751Z,23.60
2022-09-15T14:52:41.371Z,23.70
2022-09-15T14:57:52.523Z,23.60
2022-09-15T15:03:04.580Z,23.70
2022-09-15T15:08:12.909Z,23.70
2022-09-15T15:13:18.745Z,23.70
2022-09-15T15:18:38.299Z,23.70
2022-09-15T15:23:47.117Z,23.70
2022-09-15T15:28:51.807Z,23.60
2022-09-15T15:33:59.314Z,23.70
2022-09-15T15:39:04.923Z,23.70
2022-09-15T15:44:27.124Z,23.70
2022-09-15T15:49:32.638Z,23.60
2022-09-15T15:54:35.876Z,23.60
2022-09-15T15:59:40.270Z,23.60
2022-09-15T16:04:43.247Z,23.60
2022-09-15T16:09:47.119Z,23.70
2022-09-15T16:14:52.848Z,23.60
2022-09-15T16:19:55.953Z,23.60
2022-09-15T16:24:58.879Z,23.70
2022-09-15T16:30:04.039Z,23.60
2022-09-15T16:35:21.538Z,23.60
2022-09-15T16:40:24.617Z,23.70
2022-09-15T16:45:36.530Z,23.60
2022-09-15T16:50:56.040Z,23.60
2022-09-15T16:56:06.660Z,23.60
2022-09-15T17:01:18.243Z,23.60
2022-09-15T17:06:22.106Z,23.60
2022-09-15T17:11:25.648Z,23.50
2022-09-15T17:16:30.063Z,23.60
2022-09-15T17:21:33.000Z,23.60
2022-09-15T17:26:35.934Z,23.60
2022-09-15T17:31:40.303Z,23.60
2022-09-15T17:36:43.402Z,23.60
2022-09-15T17:41:47.126Z,23.60
2022-09-15T17:46:51.447Z,23.60
2022-09-15T17:51:54.429Z,23.60
2022-09-15T17:56:57.363Z,23.60
2022-09-15T18:02:01.787Z,23.60
2022-09-15T18:07:04.759Z,23.60
2022-09-15T18:12:07.727Z,23.50
2022-09-15T18:17:12.383Z,23.50
2022-09-15T18:22:15.703Z,23.50
2022-09-15T18:27:18.651Z,23.50
2022-09-15T18:32:22.967Z,23.50
2022-09-15T18:37:25.991Z,23.50
2022-09-15T18:42:31.839Z,23.50
2022-09-15T18:47:37.302Z,23.50
2022-09-15T18:52:42.048Z,23.50
2022-09-15T18:57:45.358Z,23.50
2022-09-15T19:02:50.078Z,23.40
2022-09-15T19:07:53.212Z,23.40
2022-09-15T19:12:56.185Z,23.40
2022-09-15T19:18:00.489Z,23.40
2022-09-15T19:23:03.423Z,23.40
2022-09-15T19:28:06.371Z,23.40
2022-09-15T19:33:11.076Z,23.40
2022-09-15T19:38:14.056Z,23.40
2022-09-15T19:43:17.009Z,23.40
2022-09-15T19:48:21.323Z,23.40
2022-09-15T19:53:24.291Z,23.40
2022-09-15T19:58:27.330Z,23.40
2022-09-15T20:03:31.659Z,23.40
2022-09-15T20:08:35.316Z,23.40
2022-09-15T20:13:41.436Z,23.40
2022-09-15T20:18:47.812Z,23.40
2022-09-15T20:23:50.768Z,23.40
2022-09-15T20:28:54.478Z,23.40
2022-09-15T20:33:58.786Z,23.40
2022-09-15T20:39:03.300Z,23.40
2022-09-15T20:44:09.311Z,23.40
2022-09-15T20:49:13.640Z,23.30
2022-09-15T20:54:16.597Z,23.30
2022-09-15T20:59:19.547Z,23.30
2022-09-15T21:04:23.873Z,23.30
2022-09-15T21:09:26.839Z,23.40
2022-09-15T21:14:30.531Z,23.30
2022-09-15T21:19:38.447Z,23.30
2022-09-15T21:24:41.387Z,23.30
2022-09-15T21:29:45.012Z,23.30
2022-09-15T21:34:49.343Z,23.30
2022-09-15T21:39:52.354Z,23.30
2022-09-15T21:44:55.590Z,23.30
2022-09-15T21:50:01.228Z,23.30
2022-09-15T21:55:04.199Z,23.30
2022-09-15T22:00:09.835Z,23.30
2022-09-15T22:05:14.126Z,23.30
2022-09-15T22:10:17.227Z,23.30
2022-09-15T22:15:20.207Z,23.30
2022-09-15T22:20:24.673Z,23.30
2022-09-15T22:25:27.720Z,23.30
2022-09-15T22:30:30.685Z,23.30
2022-09-15T22:35:35.035Z,23.30
2022-09-15T22:40:38.064Z,23.30
2022-09-15T22:45:41.122Z,23.30
2022-09-15T22:50:46.360Z,23.20
2022-09-15T22:55:49.317Z,23.30
2022-09-15T23:00:52.376Z,23.20
2022-09-15T23:05:59.856Z,23.20
2022-09-15T23:11:04.750Z,23.20
2022-09-15T23:16:08.411Z,23.20
2022-09-15T23:21:13.819Z,23.20
2022-09-15T23:26:18.449Z,23.20
2022-09-15T23:31:22.153Z,23.20
2022-09-15T23:36:26.545Z,23.20
2022-09-15T23:41:29.556Z,23.20
2022-09-15T23:46:33.255Z,23.20
2022-09-15T23:51:37.638Z,23.20
2022-09-15T23:56:40.665Z,23.10
